Time;durP1;ratioP1;P1;durP2;ratioP2;P2;SDS_P1;SDS_P2;PMS_P1;PMS_P2;Temp;Humidity;BMP_temperature;BMP_pressure;BME280_temperature;BME280_humidity;BME280_pressure;Samples;Min_cycle;Max_cycle;Signal;HPM_P1;HPM_P2
2022/11/30 00:00:26;;;;;;;66.88;36.45;;;;;;;;;;5063812;28;20100;-75
2022/11/30 00:02:52;;;;;;;70.72;36.47;;;;;;;;;;5069116;28;20047;-80
2022/11/30 00:05:19;;;;;;;68.28;37.35;;;;;;;;;;5068143;28;20470;-80
2022/11/30 00:07:46;;;;;;;71.55;36.75;;;;;;;;;;5069161;28;20021;-80
2022/11/30 00:10:12;;;;;;;65.00;34.42;;;;;;;;;;5062108;28;20460;-80
2022/11/30 00:12:41;;;;;;;71.93;36.88;;;;;;;;;;5069574;28;20028;-80
2022/11/30 00:15:08;;;;;;;67.20;36.17;;;;;;;;;;5071049;28;20042;-79
2022/11/30 00:17:33;;;;;;;77.97;39.40;;;;;;;;;;5065246;28;20093;-76
2022/11/30 00:19:59;;;;;;;73.15;37.28;;;;;;;;;;5071110;28;20479;-79
2022/11/30 00:22:25;;;;;;;79.53;38.92;;;;;;;;;;5065145;28;20028;-73
2022/11/30 00:24:51;;;;;;;71.82;36.63;;;;;;;;;;5067105;28;20103;-79
2022/11/30 00:27:17;;;;;;;79.72;38.28;;;;;;;;;;5069083;28;20029;-79
2022/11/30 00:29:43;;;;;;;71.57;35.75;;;;;;;;;;5073398;28;20036;-77
2022/11/30 00:32:09;;;;;;;71.05;37.15;;;;;;;;;;5052543;28;20050;-78
2022/11/30 00:34:35;;;;;;;75.20;37.08;;;;;;;;;;5056376;28;20369;-77
2022/11/30 00:37:01;;;;;;;87.22;38.38;;;;;;;;;;5072900;28;20033;-78
2022/11/30 00:39:27;;;;;;;74.00;37.00;;;;;;;;;;5064017;28;20025;-73
2022/11/30 00:41:53;;;;;;;73.05;37.42;;;;;;;;;;5072309;28;20438;-79
2022/11/30 00:44:19;;;;;;;70.95;36.50;;;;;;;;;;5066730;28;20104;-79
2022/11/30 00:46:45;;;;;;;74.25;36.63;;;;;;;;;;5076432;28;20082;-80
2022/11/30 00:49:11;;;;;;;71.00;37.30;;;;;;;;;;5053618;28;20383;-79
2022/11/30 00:51:38;;;;;;;78.68;38.40;;;;;;;;;;5071914;28;20028;-79
2022/11/30 00:54:04;;;;;;;72.43;37.53;;;;;;;;;;5066078;28;20029;-79
2022/11/30 00:56:30;;;;;;;70.05;36.42;;;;;;;;;;5069722;28;20040;-75
2022/11/30 00:58:56;;;;;;;72.78;36.20;;;;;;;;;;5061318;28;20048;-80
2022/11/30 01:01:22;;;;;;;76.28;37.22;;;;;;;;;;5071085;28;20025;-77
2022/11/30 01:03:48;;;;;;;70.70;36.50;;;;;;;;;;5068823;28;20020;-78
2022/11/30 01:06:13;;;;;;;72.35;36.10;;;;;;;;;;5061131;28;20074;-78
2022/11/30 01:08:40;;;;;;;81.47;37.42;;;;;;;;;;5070619;28;20043;-78
2022/11/30 01:11:12;;;;;;;75.85;37.53;;;;;;;;;;5067488;28;20017;-77
2022/11/30 01:13:38;;;;;;;73.57;37.72;;;;;;;;;;5071738;28;20050;-78
2022/11/30 01:16:08;;;;;;;73.03;38.00;;;;;;;;;;5072182;28;20028;-79
2022/11/30 01:18:36;;;;;;;69.88;37.03;;;;;;;;;;5065879;28;20147;-80
2022/11/30 01:21:05;;;;;;;66.15;35.95;;;;;;;;;;5050914;28;20025;-81
2022/11/30 01:23:31;;;;;;;68.28;34.08;;;;;;;;;;5068176;28;20031;-80
2022/11/30 01:25:57;;;;;;;74.35;36.60;;;;;;;;;;5055335;28;20029;-80
2022/11/30 01:28:23;;;;;;;66.75;35.75;;;;;;;;;;5072075;28;20036;-79
2022/11/30 01:30:59;;;;;;;78.38;37.28;;;;;;;;;;5061043;28;20312;-79
2022/11/30 01:33:24;;;;;;;78.13;38.33;;;;;;;;;;5070781;28;20021;-79
2022/11/30 01:36:04;;;;;;;75.50;36.83;;;;;;;;;;5063345;28;20067;-78
2022/11/30 01:38:31;;;;;;;79.20;38.25;;;;;;;;;;5064076;28;20032;-78
2022/11/30 01:40:57;;;;;;;67.43;35.58;;;;;;;;;;5068335;28;20028;-76
2022/11/30 01:43:36;;;;;;;75.35;38.22;;;;;;;;;;5072124;28;20081;-79
2022/11/30 01:46:02;;;;;;;77.40;37.90;;;;;;;;;;5072145;28;20039;-79
2022/11/30 01:48:28;;;;;;;73.40;35.40;;;;;;;;;;5066598;28;20024;-73
2022/11/30 01:50:55;;;;;;;78.93;38.55;;;;;;;;;;5070024;28;20029;-78
2022/11/30 01:53:21;;;;;;;76.50;39.25;;;;;;;;;;5071548;28;20035;-79
2022/11/30 01:55:48;;;;;;;74.15;37.30;;;;;;;;;;5070355;28;20565;-79
2022/11/30 02:01:31;;;;;;;71.85;35.33;;;;;;;;;;5047267;28;20103;-78
2022/11/30 02:04:02;;;;;;;73.00;36.50;;;;;;;;;;5051282;28;20037;-79
2022/11/30 02:06:29;;;;;;;76.85;37.20;;;;;;;;;;5050639;28;20096;-73
2022/11/30 02:08:55;;;;;;;68.78;35.08;;;;;;;;;;5043206;28;20017;-79
2022/11/30 02:11:21;;;;;;;73.28;34.65;;;;;;;;;;5045672;28;20025;-78
2022/11/30 02:14:10;;;;;;;72.22;34.85;;;;;;;;;;5049130;28;20037;-80
2022/11/30 02:16:39;;;;;;;65.80;35.08;;;;;;;;;;5022713;28;20044;-77
2022/11/30 02:19:15;;;;;;;68.47;33.75;;;;;;;;;;5039450;28;20060;-78
2022/11/30 02:21:50;;;;;;;70.32;34.30;;;;;;;;;;5048856;28;20044;-80
2022/11/30 02:24:28;;;;;;;68.53;33.80;;;;;;;;;;5051503;28;20036;-79
2022/11/30 02:27:03;;;;;;;66.45;34.28;;;;;;;;;;5050842;28;20035;-80
2022/11/30 02:29:31;;;;;;;72.38;35.08;;;;;;;;;;5050613;28;20104;-75
2022/11/30 02:32:00;;;;;;;72.88;35.08;;;;;;;;;;5050650;28;20028;-81
2022/11/30 02:34:27;;;;;;;75.75;37.38;;;;;;;;;;5050175;28;20025;-73
2022/11/30 02:36:54;;;;;;;76.18;36.58;;;;;;;;;;5046011;28;20051;-80
2022/11/30 02:39:21;;;;;;;65.60;33.65;;;;;;;;;;5044780;28;20064;-79
2022/11/30 02:41:47;;;;;;;69.65;34.90;;;;;;;;;;5047975;28;20029;-79
2022/11/30 02:44:14;;;;;;;67.03;33.88;;;;;;;;;;5051319;28;20036;-79
2022/11/30 02:46:58;;;;;;;62.45;33.65;;;;;;;;;;5042049;28;20074;-80
2022/11/30 02:49:27;;;;;;;64.53;32.55;;;;;;;;;;5040239;28;20029;-81
2022/11/30 02:51:54;;;;;;;66.03;35.15;;;;;;;;;;5045637;28;20112;-79
2022/11/30 02:54:20;;;;;;;62.28;31.67;;;;;;;;;;5046088;28;20025;-79
2022/11/30 02:56:46;;;;;;;67.93;34.00;;;;;;;;;;5048286;28;20112;-79
2022/11/30 02:59:12;;;;;;;73.22;35.40;;;;;;;;;;5050136;28;20024;-80
2022/11/30 03:01:39;;;;;;;67.45;33.40;;;;;;;;;;5059760;28;20045;-79
2022/11/30 03:04:05;;;;;;;62.05;32.75;;;;;;;;;;5070676;28;20090;-79
2022/11/30 03:06:31;;;;;;;60.17;32.80;;;;;;;;;;5070135;28;20056;-79
2022/11/30 03:08:57;;;;;;;58.53;30.85;;;;;;;;;;5057035;28;20040;-79
2022/11/30 03:11:24;;;;;;;59.88;31.60;;;;;;;;;;5067614;28;20055;-80
2022/11/30 03:13:50;;;;;;;63.65;33.60;;;;;;;;;;5067033;28;20518;-78
2022/11/30 03:16:16;;;;;;;63.85;31.08;;;;;;;;;;5070076;28;20544;-80
2022/11/30 03:18:42;;;;;;;55.35;30.55;;;;;;;;;;5068420;28;20143;-80
2022/11/30 03:21:10;;;;;;;56.40;29.88;;;;;;;;;;5061809;28;20495;-79
2022/11/30 03:23:36;;;;;;;55.88;29.08;;;;;;;;;;5069760;28;20035;-80
2022/11/30 03:26:02;;;;;;;57.70;30.10;;;;;;;;;;5063052;28;20028;-79
2022/11/30 03:28:28;;;;;;;59.38;30.58;;;;;;;;;;5063237;28;20079;-73
2022/11/30 03:30:54;;;;;;;63.13;30.58;;;;;;;;;;5061464;28;20081;-79
2022/11/30 03:33:20;;;;;;;57.65;30.42;;;;;;;;;;5070324;28;20020;-80
2022/11/30 03:35:46;;;;;;;52.38;29.67;;;;;;;;;;5067569;28;20062;-79
2022/11/30 03:38:12;;;;;;;57.83;31.27;;;;;;;;;;5067767;28;20112;-79
2022/11/30 03:40:38;;;;;;;54.22;29.27;;;;;;;;;;5060642;28;20090;-79
2022/11/30 03:43:04;;;;;;;53.20;27.73;;;;;;;;;;5062565;28;20093;-79
2022/11/30 03:45:30;;;;;;;62.70;30.30;;;;;;;;;;5070139;28;20029;-75
2022/11/30 03:47:56;;;;;;;54.83;30.13;;;;;;;;;;5071462;28;20043;-81
2022/11/30 03:50:22;;;;;;;55.50;29.52;;;;;;;;;;5071355;28;20029;-81
2022/11/30 03:52:48;;;;;;;54.00;29.20;;;;;;;;;;5070155;28;20017;-82
2022/11/30 03:55:14;;;;;;;49.90;28.58;;;;;;;;;;5064312;28;20532;-81
2022/11/30 03:57:40;;;;;;;55.60;29.00;;;;;;;;;;5068013;28;20037;-81
2022/11/30 04:00:06;;;;;;;56.58;29.52;;;;;;;;;;5073749;28;20471;-81
2022/11/30 04:02:32;;;;;;;46.40;25.38;;;;;;;;;;5072827;28;20102;-82
2022/11/30 04:04:58;;;;;;;49.92;27.30;;;;;;;;;;5072461;28;20391;-82
2022/11/30 04:07:24;;;;;;;46.55;25.67;;;;;;;;;;5066777;28;20036;-84
2022/11/30 04:09:50;;;;;;;53.38;27.95;;;;;;;;;;5054962;28;20410;-81
2022/11/30 04:12:16;;;;;;;52.08;27.60;;;;;;;;;;5068629;28;20024;-79
2022/11/30 04:14:42;;;;;;;51.03;26.88;;;;;;;;;;5064984;28;20112;-80
2022/11/30 04:17:08;;;;;;;48.70;27.70;;;;;;;;;;5060309;28;20052;-81
2022/11/30 04:19:34;;;;;;;47.55;26.35;;;;;;;;;;5072788;28;20032;-81
2022/11/30 04:22:00;;;;;;;51.22;28.67;;;;;;;;;;5067702;28;20383;-78
2022/11/30 04:24:26;;;;;;;50.40;27.50;;;;;;;;;;5067540;28;20021;-73
2022/11/30 04:26:52;;;;;;;51.72;26.75;;;;;;;;;;5064307;28;20112;-79
2022/11/30 04:29:18;;;;;;;47.90;26.52;;;;;;;;;;5073498;28;20498;-80
2022/11/30 04:40:17;;;;;;;51.22;26.20;;;;;;;;;;5061960;28;20031;-79
2022/11/30 04:42:43;;;;;;;49.17;27.08;;;;;;;;;;5067256;28;20089;-79
2022/11/30 04:45:09;;;;;;;52.85;26.50;;;;;;;;;;5054949;28;20029;-79
2022/11/30 04:47:35;;;;;;;46.42;25.80;;;;;;;;;;5065669;28;20017;-74
2022/11/30 04:50:01;;;;;;;49.42;26.00;;;;;;;;;;5067175;28;20527;-80
2022/11/30 04:52:27;;;;;;;47.08;25.65;;;;;;;;;;5068398;28;20103;-74
2022/11/30 04:54:55;;;;;;;45.22;25.02;;;;;;;;;;5068611;28;20103;-79
2022/11/30 04:57:21;;;;;;;47.10;26.48;;;;;;;;;;5070199;28;20127;-80
2022/11/30 04:59:47;;;;;;;50.80;26.85;;;;;;;;;;5057255;28;20088;-78
2022/11/30 05:02:13;;;;;;;54.03;26.10;;;;;;;;;;5068654;28;20048;-76
2022/11/30 05:04:39;;;;;;;49.33;26.38;;;;;;;;;;5072120;28;20027;-84
2022/11/30 05:07:05;;;;;;;52.03;27.75;;;;;;;;;;5072019;28;20032;-82
2022/11/30 05:09:31;;;;;;;52.00;27.83;;;;;;;;;;5066991;28;20064;-81
2022/11/30 05:11:57;;;;;;;51.10;27.48;;;;;;;;;;5068070;28;20032;-76
2022/11/30 05:14:23;;;;;;;52.97;28.23;;;;;;;;;;5071231;28;20036;-78
2022/11/30 05:16:49;;;;;;;51.03;26.27;;;;;;;;;;5070738;28;20040;-78
2022/11/30 05:19:16;;;;;;;48.60;27.00;;;;;;;;;;5071101;28;20021;-79
2022/11/30 05:21:42;;;;;;;44.47;25.00;;;;;;;;;;5068949;28;20029;-80
2022/11/30 05:24:08;;;;;;;49.78;27.08;;;;;;;;;;5068267;28;20148;-79
2022/11/30 05:26:35;;;;;;;43.42;24.52;;;;;;;;;;5064676;28;20033;-79
2022/11/30 05:29:01;;;;;;;49.05;26.17;;;;;;;;;;5071868;28;20050;-79
2022/11/30 05:31:27;;;;;;;46.55;25.35;;;;;;;;;;5071692;28;20033;-73
2022/11/30 05:33:53;;;;;;;50.72;27.50;;;;;;;;;;5071846;28;20040;-79
2022/11/30 05:36:19;;;;;;;46.45;25.50;;;;;;;;;;5066545;28;20025;-79
2022/11/30 05:39:10;;;;;;;47.20;24.98;;;;;;;;;;5070968;28;20502;-79
2022/11/30 05:42:01;;;;;;;51.17;24.67;;;;;;;;;;5070256;28;20036;-80
2022/11/30 05:44:52;;;;;;;45.17;25.38;;;;;;;;;;5052766;28;20727;-73
2022/11/30 05:47:43;;;;;;;43.42;24.88;;;;;;;;;;5062705;28;20406;-79
2022/11/30 05:50:34;;;;;;;40.78;23.55;;;;;;;;;;5068484;28;20028;-76
2022/11/30 05:53:25;;;;;;;44.13;23.33;;;;;;;;;;5068904;28;20032;-79
2022/11/30 05:56:16;;;;;;;40.85;23.98;;;;;;;;;;5061119;28;20511;-79
2022/11/30 05:59:07;;;;;;;42.40;23.95;;;;;;;;;;5062229;28;20040;-79
2022/11/30 06:01:33;;;;;;;40.17;23.20;;;;;;;;;;5060437;28;20048;-79
2022/11/30 06:03:59;;;;;;;37.05;20.98;;;;;;;;;;5063119;28;20028;-78
2022/11/30 06:06:25;;;;;;;38.05;21.98;;;;;;;;;;5070028;28;20494;-80
2022/11/30 06:08:51;;;;;;;40.50;22.30;;;;;;;;;;5070956;28;20242;-81
2022/11/30 06:11:17;;;;;;;37.00;22.45;;;;;;;;;;5062300;28;20028;-80
2022/11/30 06:13:43;;;;;;;42.63;23.88;;;;;;;;;;5067474;28;20483;-80
2022/11/30 06:16:09;;;;;;;36.33;21.48;;;;;;;;;;5059105;28;20040;-78
2022/11/30 06:18:37;;;;;;;35.92;21.13;;;;;;;;;;5062297;28;20033;-80
2022/11/30 06:21:07;;;;;;;35.85;21.27;;;;;;;;;;5069281;28;20077;-80
2022/11/30 06:23:33;;;;;;;39.60;21.88;;;;;;;;;;5071088;28;20032;-79
2022/11/30 06:26:03;;;;;;;41.63;21.88;;;;;;;;;;5071081;28;20107;-79
2022/11/30 06:28:29;;;;;;;;;;;;;;;;;;5068175;28;20047;-74
2022/11/30 06:30:58;;;;;;;40.28;22.05;;;;;;;;;;5072440;28;19956;-75
2022/11/30 06:33:24;;;;;;;43.72;24.50;;;;;;;;;;5086807;28;20040;-77
2022/11/30 06:35:50;;;;;;;43.45;25.45;;;;;;;;;;5077281;28;20545;-76
2022/11/30 06:38:16;;;;;;;43.17;23.92;;;;;;;;;;5082120;28;20509;-78
2022/11/30 06:40:42;;;;;;;44.60;24.88;;;;;;;;;;5090136;28;20467;-78
2022/11/30 06:43:08;;;;;;;45.83;24.60;;;;;;;;;;5072551;28;20047;-85
2022/11/30 06:45:34;;;;;;;41.25;23.58;;;;;;;;;;5063753;28;20545;-80
2022/11/30 06:48:25;;;;;;;41.00;22.85;;;;;;;;;;5071716;28;20031;-80
2022/11/30 06:50:51;;;;;;;49.58;24.85;;;;;;;;;;5071104;28;20100;-85
2022/11/30 06:53:17;;;;;;;40.08;23.85;;;;;;;;;;5070282;28;20487;-79
2022/11/30 06:55:43;;;;;;;41.85;25.15;;;;;;;;;;5061638;28;20069;-79
2022/11/30 06:58:10;;;;;;;39.30;24.05;;;;;;;;;;5064190;28;20029;-79
2022/11/30 07:00:37;;;;;;;43.03;24.45;;;;;;;;;;5063851;28;20524;-84
2022/11/30 07:03:03;;;;;;;41.35;23.40;;;;;;;;;;5064609;28;20032;-79
2022/11/30 07:05:30;;;;;;;44.28;24.25;;;;;;;;;;5062231;28;20384;-78
2022/11/30 07:07:56;;;;;;;42.80;24.77;;;;;;;;;;5068275;28;20048;-79
2022/11/30 07:10:22;;;;;;;44.72;25.38;;;;;;;;;;5068905;28;20467;-75
2022/11/30 07:12:48;;;;;;;50.38;26.02;;;;;;;;;;5068520;28;20052;-78
2022/11/30 07:15:14;;;;;;;41.88;24.33;;;;;;;;;;5070382;28;20024;-78
2022/11/30 07:17:40;;;;;;;43.20;23.25;;;;;;;;;;5064758;28;20039;-80
2022/11/30 07:22:54;;;;;;;42.65;22.85;;;;;;;;;;5072326;28;20044;-77
2022/11/30 07:28:07;;;;;;;36.95;22.00;;;;;;;;;;5071022;28;20028;-79
2022/11/30 07:30:33;;;;;;;38.05;21.35;;;;;;;;;;5072998;28;20031;-78
2022/11/30 07:32:59;;;;;;;36.90;22.08;;;;;;;;;;5078841;28;20043;-74
2022/11/30 07:35:25;;;;;;;40.60;22.63;;;;;;;;;;5064577;28;20460;-79
2022/11/30 07:37:51;;;;;;;36.78;21.63;;;;;;;;;;5071257;28;20102;-78
2022/11/30 07:40:17;;;;;;;41.30;22.90;;;;;;;;;;5075153;28;20027;-78
2022/11/30 07:42:43;;;;;;;41.20;22.92;;;;;;;;;;5056727;28;20103;-77
2022/11/30 07:45:09;;;;;;;39.22;21.75;;;;;;;;;;5066777;28;20443;-79
2022/11/30 07:47:35;;;;;;;43.47;23.27;;;;;;;;;;5066990;28;20025;-78
2022/11/30 07:50:01;;;;;;;43.75;23.33;;;;;;;;;;5071666;28;20529;-78
2022/11/30 07:52:29;;;;;;;38.78;23.15;;;;;;;;;;5063169;28;20032;-73
2022/11/30 07:54:55;;;;;;;40.53;22.65;;;;;;;;;;5071078;28;20029;-76
2022/11/30 07:57:21;;;;;;;37.08;21.42;;;;;;;;;;5072778;28;20071;-77
2022/11/30 07:59:47;;;;;;;38.58;22.30;;;;;;;;;;5063406;28;20566;-79
2022/11/30 08:02:13;;;;;;;40.58;22.15;;;;;;;;;;5063297;28;20044;-77
2022/11/30 08:04:39;;;;;;;35.58;20.00;;;;;;;;;;5069069;28;20039;-77
2022/11/30 08:07:05;;;;;;;39.70;22.65;;;;;;;;;;5071476;28;20040;-79
2022/11/30 08:09:31;;;;;;;40.25;22.27;;;;;;;;;;5072964;28;20074;-77
2022/11/30 08:11:57;;;;;;;36.85;22.27;;;;;;;;;;5071574;28;20372;-78
2022/11/30 08:14:23;;;;;;;39.92;22.48;;;;;;;;;;5061393;28;20029;-77
2022/11/30 08:16:49;;;;;;;39.30;24.00;;;;;;;;;;5071078;28;20068;-77
2022/11/30 08:19:15;;;;;;;40.50;22.67;;;;;;;;;;5060773;28;20025;-77
2022/11/30 08:21:41;;;;;;;39.20;22.42;;;;;;;;;;5065514;28;20020;-76
2022/11/30 08:24:11;;;;;;;40.30;22.73;;;;;;;;;;5062659;28;20021;-78
2022/11/30 08:26:37;;;;;;;36.22;21.67;;;;;;;;;;5071497;28;20104;-77
2022/11/30 08:29:03;;;;;;;36.90;21.42;;;;;;;;;;5073577;28;20044;-78
2022/11/30 08:31:31;;;;;;;35.42;22.05;;;;;;;;;;5067561;28;20024;-73
2022/11/30 08:33:58;;;;;;;37.55;21.77;;;;;;;;;;5073351;28;20028;-78
2022/11/30 08:36:24;;;;;;;39.15;22.15;;;;;;;;;;5067317;28;20028;-78
2022/11/30 08:38:50;;;;;;;34.28;20.60;;;;;;;;;;5071192;28;20025;-78
2022/11/30 08:41:20;;;;;;;36.25;20.90;;;;;;;;;;5061383;28;20526;-78
2022/11/30 08:43:46;;;;;;;42.97;22.83;;;;;;;;;;5061358;28;20016;-79
2022/11/30 08:46:13;;;;;;;38.15;21.80;;;;;;;;;;5068961;28;20024;-77
2022/11/30 08:48:39;;;;;;;38.05;21.08;;;;;;;;;;5065427;28;20033;-77
2022/11/30 08:51:06;;;;;;;36.17;20.75;;;;;;;;;;5072462;28;20033;-78
2022/11/30 08:53:33;;;;;;;36.00;19.60;;;;;;;;;;5048964;28;20037;-77
2022/11/30 08:56:01;;;;;;;36.83;20.83;;;;;;;;;;5062359;28;20495;-77
2022/11/30 08:58:29;;;;;;;36.95;21.25;;;;;;;;;;5062378;28;20025;-73
2022/11/30 09:00:55;;;;;;;36.40;20.85;;;;;;;;;;5064620;28;20036;-76
2022/11/30 09:03:21;;;;;;;33.95;19.40;;;;;;;;;;5065969;28;20021;-79
2022/11/30 09:05:47;;;;;;;35.03;20.30;;;;;;;;;;5068976;28;20061;-78
2022/11/30 09:08:13;;;;;;;33.80;20.40;;;;;;;;;;5069304;28;20021;-77
2022/11/30 09:10:39;;;;;;;34.58;20.33;;;;;;;;;;5066011;28;20021;-75
2022/11/30 09:13:05;;;;;;;35.85;21.15;;;;;;;;;;5075037;28;20036;-78
2022/11/30 09:15:32;;;;;;;34.55;20.02;;;;;;;;;;5069984;28;20044;-73
2022/11/30 09:17:58;;;;;;;36.70;20.65;;;;;;;;;;5066728;28;20035;-78
2022/11/30 09:20:24;;;;;;;33.55;20.67;;;;;;;;;;5066711;28;20031;-77
2022/11/30 09:22:50;;;;;;;36.58;20.10;;;;;;;;;;5061474;28;20028;-77
2022/11/30 09:25:16;;;;;;;33.65;20.15;;;;;;;;;;5067948;28;20021;-76
2022/11/30 09:27:42;;;;;;;37.05;20.23;;;;;;;;;;5069516;28;20158;-76
2022/11/30 09:30:08;;;;;;;38.90;20.73;;;;;;;;;;5067133;28;20094;-77
2022/11/30 09:32:34;;;;;;;38.58;20.85;;;;;;;;;;5068447;28;20495;-77
2022/11/30 09:35:00;;;;;;;34.58;20.42;;;;;;;;;;5069264;28;20017;-78
2022/11/30 09:37:26;;;;;;;36.22;20.63;;;;;;;;;;5070189;28;20035;-75
2022/11/30 09:39:52;;;;;;;37.08;21.08;;;;;;;;;;5068456;28;20056;-78
2022/11/30 09:42:33;;;;;;;36.72;21.05;;;;;;;;;;5059418;28;20455;-76
2022/11/30 09:44:59;;;;;;;38.03;20.77;;;;;;;;;;5050535;28;20470;-76
2022/11/30 09:47:52;;;;;;;39.30;22.05;;;;;;;;;;5066140;28;20044;-76
2022/11/30 09:50:20;;;;;;;36.92;21.70;;;;;;;;;;5022308;28;20041;-77
2022/11/30 09:52:57;;;;;;;33.38;19.70;;;;;;;;;;5058334;28;20029;-78
2022/11/30 09:55:25;;;;;;;36.45;21.23;;;;;;;;;;5062284;28;20024;-77
2022/11/30 09:57:53;;;;;;;32.80;19.70;;;;;;;;;;5068569;28;20068;-77
2022/11/30 10:00:20;;;;;;;37.50;20.63;;;;;;;;;;5070936;28;20049;-78
2022/11/30 10:02:47;;;;;;;30.77;18.40;;;;;;;;;;5066255;28;20044;-77
2022/11/30 10:05:34;;;;;;;32.10;19.00;;;;;;;;;;5068983;28;20085;-76
2022/11/30 10:08:03;;;;;;;35.30;18.63;;;;;;;;;;5063862;28;20058;-77
2022/11/30 10:10:52;;;;;;;32.85;19.05;;;;;;;;;;5068394;28;20034;-73
2022/11/30 10:13:24;;;;;;;34.40;20.00;;;;;;;;;;5022621;28;20457;-76
2022/11/30 10:15:53;;;;;;;36.60;19.92;;;;;;;;;;5059750;28;20139;-79
2022/11/30 10:18:28;;;;;;;30.85;18.85;;;;;;;;;;5065837;28;20079;-78
2022/11/30 10:21:15;;;;;;;34.58;19.42;;;;;;;;;;5070101;28;20089;-78
2022/11/30 10:23:41;;;;;;;32.17;18.17;;;;;;;;;;5066280;28;20036;-78
2022/11/30 10:26:30;;;;;;;27.90;17.85;;;;;;;;;;5060875;28;20025;-79
2022/11/30 10:28:58;;;;;;;28.00;16.38;;;;;;;;;;5054397;28;20029;-78
2022/11/30 10:31:34;;;;;;;28.42;17.55;;;;;;;;;;5066454;28;20056;-77
2022/11/30 10:34:16;;;;;;;33.22;18.25;;;;;;;;;;5068946;28;20492;-78
2022/11/30 10:36:44;;;;;;;27.42;17.65;;;;;;;;;;5068156;28;20340;-77
2022/11/30 10:39:25;;;;;;;26.02;16.52;;;;;;;;;;5068223;28;20371;-77
2022/11/30 10:42:07;;;;;;;26.88;16.52;;;;;;;;;;5064713;28;20111;-78
2022/11/30 10:44:38;;;;;;;27.42;15.55;;;;;;;;;;5069216;28;20059;-78
2022/11/30 10:47:14;;;;;;;27.25;17.17;;;;;;;;;;5061858;28;20518;-79
2022/11/30 10:49:43;;;;;;;27.17;15.88;;;;;;;;;;5069477;28;20517;-77
2022/11/30 10:52:11;;;;;;;26.02;16.52;;;;;;;;;;5072234;28;20036;-79
2022/11/30 10:54:38;;;;;;;27.60;16.98;;;;;;;;;;5081125;28;20032;-77
2022/11/30 10:57:06;;;;;;;28.20;15.93;;;;;;;;;;5063757;28;20082;-76
2022/11/30 10:59:37;;;;;;;24.65;15.27;;;;;;;;;;5064843;28;20092;-78
2022/11/30 11:02:23;;;;;;;26.52;15.82;;;;;;;;;;5058714;28;20423;-79
2022/11/30 11:05:06;;;;;;;28.50;14.75;;;;;;;;;;5058270;28;20199;-79
2022/11/30 11:07:32;;;;;;;29.95;17.33;;;;;;;;;;5064752;28;20040;-79
2022/11/30 11:10:01;;;;;;;27.70;16.05;;;;;;;;;;5057707;28;20029;-79
2022/11/30 11:12:29;;;;;;;24.77;15.25;;;;;;;;;;5067160;28;20020;-72
2022/11/30 11:15:07;;;;;;;27.30;16.77;;;;;;;;;;5069047;28;20028;-79
2022/11/30 11:17:33;;;;;;;26.67;15.20;;;;;;;;;;5059468;28;20041;-77
2022/11/30 11:19:59;;;;;;;24.77;14.52;;;;;;;;;;5068945;28;20025;-78
2022/11/30 11:22:27;;;;;;;34.13;15.02;;;;;;;;;;5070302;28;20379;-77
2022/11/30 11:24:55;;;;;;;22.95;14.63;;;;;;;;;;5069448;28;20033;-78
2022/11/30 11:27:31;;;;;;;23.60;15.02;;;;;;;;;;5070414;28;20379;-77
2022/11/30 11:30:06;;;;;;;24.10;15.00;;;;;;;;;;5070705;28;20021;-77
2022/11/30 11:32:33;;;;;;;26.13;15.75;;;;;;;;;;5069317;28;20021;-77
2022/11/30 11:34:59;;;;;;;24.23;13.70;;;;;;;;;;5069993;28;20486;-78
2022/11/30 11:37:27;;;;;;;22.95;12.55;;;;;;;;;;5070348;28;20035;-78
2022/11/30 11:40:14;;;;;;;17.15;11.10;;;;;;;;;;5068278;28;20103;-77
2022/11/30 11:42:48;;;;;;;16.00;10.82;;;;;;;;;;5060551;28;20032;-78
2022/11/30 11:45:16;;;;;;;18.75;11.02;;;;;;;;;;5070136;28;20455;-78
2022/11/30 11:47:43;;;;;;;21.35;11.23;;;;;;;;;;5069025;28;20029;-77
2022/11/30 11:50:12;;;;;;;16.55;11.07;;;;;;;;;;5070245;28;20020;-77
2022/11/30 11:52:39;;;;;;;21.90;13.13;;;;;;;;;;5068809;28;20382;-77
2022/11/30 11:55:12;;;;;;;20.80;14.18;;;;;;;;;;5061301;28;20044;-79
2022/11/30 11:57:45;;;;;;;19.25;13.40;;;;;;;;;;5068803;28;20067;-77
2022/11/30 12:00:19;;;;;;;22.70;14.35;;;;;;;;;;5072033;28;20099;-77
2022/11/30 12:02:50;;;;;;;22.38;14.95;;;;;;;;;;5068327;28;20048;-75
2022/11/30 12:05:18;;;;;;;22.67;14.90;;;;;;;;;;5060329;28;20085;-73
2022/11/30 12:08:20;;;;;;;23.30;13.85;;;;;;;;;;5065826;28;20100;-71
2022/11/30 12:10:46;;;;;;;24.92;15.55;;;;;;;;;;4985262;28;20045;-70
2022/11/30 12:13:20;;;;;;;20.92;13.85;;;;;;;;;;5045012;28;20036;-73
2022/11/30 12:15:55;;;;;;;25.33;16.05;;;;;;;;;;5072499;28;20028;-72
2022/11/30 12:18:30;;;;;;;21.75;14.27;;;;;;;;;;5065861;28;20063;-73
2022/11/30 12:20:58;;;;;;;24.65;14.82;;;;;;;;;;5053551;28;20029;-77
2022/11/30 12:23:30;;;;;;;25.40;14.90;;;;;;;;;;5061570;28;20024;-72
2022/11/30 12:25:56;;;;;;;24.55;14.35;;;;;;;;;;5062242;28;20082;-73
2022/11/30 12:28:36;;;;;;;24.60;16.05;;;;;;;;;;5073983;28;20020;-72
2022/11/30 12:31:09;;;;;;;28.45;16.80;;;;;;;;;;5072964;28;20501;-72
2022/11/30 12:33:35;;;;;;;26.48;15.32;;;;;;;;;;5072259;28;20367;-72
2022/11/30 12:36:09;;;;;;;26.77;16.73;;;;;;;;;;5073652;28;20111;-72
2022/11/30 12:38:48;;;;;;;26.92;16.70;;;;;;;;;;5072335;28;20027;-72
2022/11/30 12:41:14;;;;;;;24.73;14.43;;;;;;;;;;5072404;28;20104;-72
2022/11/30 12:43:52;;;;;;;24.55;14.93;;;;;;;;;;5080334;28;20100;-71
2022/11/30 12:46:47;;;;;;;23.00;14.13;;;;;;;;;;5072890;28;20475;-72
2022/11/30 12:49:13;;;;;;;21.98;13.70;;;;;;;;;;5059404;28;20060;-72
2022/11/30 12:51:47;;;;;;;22.25;13.65;;;;;;;;;;5071281;28;20025;-72
2022/11/30 12:54:25;;;;;;;21.17;13.02;;;;;;;;;;5063626;28;20024;-71
2022/11/30 12:56:54;;;;;;;20.17;12.65;;;;;;;;;;5071719;28;20110;-72
2022/11/30 12:59:26;;;;;;;18.38;12.50;;;;;;;;;;5066052;28;20033;-72
2022/11/30 13:02:10;;;;;;;21.70;12.05;;;;;;;;;;5070766;28;20074;-72
2022/11/30 13:04:40;;;;;;;20.35;12.55;;;;;;;;;;5069212;28;20043;-72
2022/11/30 13:07:11;;;;;;;23.07;14.33;;;;;;;;;;5072111;28;20024;-72
2022/11/30 13:09:40;;;;;;;25.48;15.25;;;;;;;;;;5071536;28;20255;-73
2022/11/30 13:12:09;;;;;;;24.98;14.98;;;;;;;;;;5071477;28;20104;-72
2022/11/30 13:14:36;;;;;;;25.88;15.93;;;;;;;;;;5070090;28;20013;-73
2022/11/30 13:17:03;;;;;;;26.40;15.55;;;;;;;;;;5071485;28;20035;-73
2022/11/30 13:19:35;;;;;;;30.27;17.65;;;;;;;;;;5071615;28;20103;-73
2022/11/30 13:22:05;;;;;;;29.80;18.50;;;;;;;;;;5057985;28;20505;-72
2022/11/30 13:24:37;;;;;;;31.77;17.40;;;;;;;;;;5062755;28;20497;-72
2022/11/30 13:27:15;;;;;;;28.80;16.95;;;;;;;;;;5071701;28;20029;-71
2022/11/30 13:30:01;;;;;;;25.42;16.10;;;;;;;;;;5070081;28;20025;-72
2022/11/30 13:32:31;;;;;;;31.90;17.77;;;;;;;;;;5070918;28;20028;-73
2022/11/30 13:35:16;;;;;;;29.48;16.90;;;;;;;;;;5071910;28;20025;-73
2022/11/30 13:37:42;;;;;;;28.98;16.90;;;;;;;;;;5070231;28;20543;-72
2022/11/30 13:40:21;;;;;;;27.88;15.95;;;;;;;;;;5071908;28;20031;-73
2022/11/30 13:42:47;;;;;;;22.08;14.50;;;;;;;;;;5070813;28;20028;-73
2022/11/30 13:45:13;;;;;;;29.35;16.55;;;;;;;;;;5071039;28;20024;-72
2022/11/30 13:47:39;;;;;;;23.27;15.40;;;;;;;;;;5070178;28;20111;-73
2022/11/30 13:50:05;;;;;;;24.00;15.20;;;;;;;;;;5065548;28;20033;-73
2022/11/30 13:52:50;;;;;;;28.40;16.85;;;;;;;;;;5070236;28;20087;-73
2022/11/30 13:55:35;;;;;;;26.02;14.85;;;;;;;;;;5070696;28;20047;-73
2022/11/30 13:58:01;;;;;;;27.08;14.75;;;;;;;;;;5071008;28;20068;-73
2022/11/30 14:00:29;;;;;;;21.55;13.88;;;;;;;;;;5071157;28;20044;-73
2022/11/30 14:03:08;;;;;;;25.13;14.40;;;;;;;;;;5070274;28;20048;-73
2022/11/30 14:05:38;;;;;;;24.27;14.38;;;;;;;;;;5070074;28;20387;-72
2022/11/30 14:08:08;;;;;;;23.50;14.90;;;;;;;;;;5071073;28;20016;-71
2022/11/30 14:11:04;;;;;;;30.08;14.90;;;;;;;;;;5070067;28;20478;-72
2022/11/30 14:13:30;;;;;;;22.40;14.07;;;;;;;;;;5053531;28;20483;-73
2022/11/30 14:16:22;;;;;;;21.85;13.52;;;;;;;;;;5071295;28;20074;-72
2022/11/30 14:18:48;;;;;;;24.50;13.43;;;;;;;;;;5066126;28;20486;-72
2022/11/30 14:21:17;;;;;;;22.23;14.07;;;;;;;;;;5070479;28;20037;-73
2022/11/30 14:24:00;;;;;;;27.80;15.18;;;;;;;;;;5068007;28;20097;-72
2022/11/30 14:26:34;;;;;;;24.98;14.90;;;;;;;;;;5070494;28;20024;-72
2022/11/30 14:29:09;;;;;;;23.83;14.68;;;;;;;;;;5069988;28;20028;-72
2022/11/30 14:31:48;;;;;;;22.88;14.57;;;;;;;;;;5069946;28;20107;-72
2022/11/30 14:34:34;;;;;;;25.17;14.50;;;;;;;;;;5070960;28;20024;-73
2022/11/30 14:37:05;;;;;;;25.10;15.10;;;;;;;;;;5069914;28;20471;-73
2022/11/30 14:39:36;;;;;;;23.63;14.63;;;;;;;;;;5070026;28;20104;-73
2022/11/30 14:42:02;;;;;;;;;;;;;;;;;;5070834;28;20436;-72
2022/11/30 14:44:33;;;;;;;25.30;14.48;;;;;;;;;;5069781;28;19943;-72
2022/11/30 14:47:11;;;;;;;24.67;15.13;;;;;;;;;;5070187;28;20154;-73
2022/11/30 14:49:46;;;;;;;24.25;14.45;;;;;;;;;;5069644;28;20481;-73